Effingham, NH

6:43 PM EDT on August 25, 2016 (GMT -0400)
HADS | | Change Station

Elev 436 ft 43.80 °N, 71.06 °W | Updated 1 hour ago

Mostly Cloudy
Mostly Cloudy
80.0 °F
Feels Like 80.0 °F
N
0.0
Wind Variable Wind from North
Gusts 0.0 mph

Today
High -- | Low -- °F
--% Chance of Precip.
Yesterday
High -- | Low -- °F
Precip. -- in
Pressure 29.94 in
Visibility 10.0 miles
Clouds Mostly Cloudy 7000 ft
Mostly Cloudy 11000 ft
Dew Point Not available.
Humidity Not available.
Rainfall in
Snow Depth Not available.
6:00 AM 7:31 PM
Last Quarter, 41% visible
METAR KIZG 252154Z AUTO 24007KT 10SM BKN070 BKN110 27/19 A2994 RMK AO2 SLP137 T02670189
Pressure 29.94 in
Visibility 10.0 miles
Clouds Mostly Cloudy 7000 ft
Mostly Cloudy 11000 ft
Dew Point Not available.
Humidity Not available.
Rainfall in
Snow Depth Not available.
6:00 AM 7:31 PM
Last Quarter, 41% visible
METAR KIZG 252154Z AUTO 24007KT 10SM BKN070 BKN110 27/19 A2994 RMK AO2 SLP137 T02670189
A tropical disturbance pushing toward the Bahamas, is expected to develop into a tropical depression or storm, and will likely target Florida and the Gulf Coast this weekend into next week.

Right now, the disturbance remains a broad area of low pressure pushing through the Dominican Republic and Haiti, headed toward the southeast Bahamas. Rainfall totals over 3 inches (with locally higher amounts) are expected in HispaƱiola, particularly over elevated terrain.

10-Day Weather Forecast

Almanac

Astronomy

Aug. 25, 2016 Rise Set
Actual Time
Civil Twilight
Nautical Twilight
Astronomical Twilight
Moon
Length of Visible Light
Length of Day
Tomorrow will be .
, % of the Moon is Illuminated

Today's Extremes

State Highs State Lows

Community

WunderPhotos

Upload Photos

1,934,952 photos uploaded!

WunderBlog® & News

Nearby

Air Quality

  Air Quality AQ Index Pollutant
Not available.

Snow Depth

Station Depth Elevation

Earthquake Activity

City Distance Mag. Time & Date
Minimum magnitude displayed is 2.5.

Coastal Water Temperatures

Place Temperature

Stations

Nearby Weather Stations

Station Location Temp. Windchill Dew Point Humidity Wind Precip. Elev Updated Type
                   

Watches & Warnings

There are currently no watches in effect.